Time;durP1;ratioP1;P1;durP2;ratioP2;P2;SDS_P1;SDS_P2;PMS_P1;PMS_P2;Temp;Humidity;BMP_temperature;BMP_pressure;BME280_temperature;BME280_humidity;BME280_pressure;Samples;Min_cycle;Max_cycle;Signal;HPM_P1;HPM_P2
2024/01/21 00:02:01;;;;;;;16.53;10.47;;;;;;;-1.40;75.75;102341.91;5036795;28;20024;-62
2024/01/21 00:04:26;;;;;;;18.00;10.47;;;;;;;-1.43;75.87;102342.03;5040348;28;20490;-61
2024/01/21 00:06:52;;;;;;;15.73;9.90;;;;;;;-1.46;75.62;102339.53;5042163;28;20029;-62
2024/01/21 00:09:17;;;;;;;18.13;10.67;;;;;;;-1.49;75.33;102330.06;5040110;28;20036;-62
2024/01/21 00:11:42;;;;;;;17.07;10.60;;;;;;;-1.54;75.39;102320.72;5047989;28;20197;-62
2024/01/21 00:14:08;;;;;;;20.17;11.13;;;;;;;-1.58;75.23;102317.38;5045957;28;20029;-61
2024/01/21 00:16:33;;;;;;;22.90;10.30;;;;;;;-1.57;75.23;102322.53;5041902;28;20025;-61
2024/01/21 00:18:58;;;;;;;16.70;10.50;;;;;;;-1.58;75.34;102320.84;5048285;28;20116;-61
2024/01/21 00:21:23;;;;;;;17.43;9.93;;;;;;;-1.58;75.12;102320.84;5039505;28;20655;-62
2024/01/21 00:23:49;;;;;;;16.07;10.37;;;;;;;-1.59;75.37;102318.28;5048794;28;20036;-62
2024/01/21 00:26:14;;;;;;;16.27;10.63;;;;;;;-1.62;75.00;102316.66;5043293;28;20119;-61
2024/01/21 00:28:39;;;;;;;18.37;10.50;;;;;;;-1.62;75.80;102314.06;5045618;28;20039;-62
2024/01/21 00:31:05;;;;;;;14.67;9.30;;;;;;;-1.62;75.13;102298.41;5045336;28;20048;-61
2024/01/21 00:33:31;;;;;;;14.53;9.30;;;;;;;-1.60;75.53;102299.22;5039996;28;20044;-61
2024/01/21 00:35:56;;;;;;;15.67;9.30;;;;;;;-1.60;75.28;102288.78;5045259;28;20752;-61
2024/01/21 00:38:21;;;;;;;15.80;9.83;;;;;;;-1.60;75.22;102301.81;5045211;28;20032;-61
2024/01/21 00:40:47;;;;;;;15.57;9.23;;;;;;;-1.60;75.37;102301.81;5041398;28;20384;-62
2024/01/21 00:43:12;;;;;;;18.37;10.00;;;;;;;-1.61;75.26;102296.66;5043870;28;20838;-62
2024/01/21 00:45:37;;;;;;;15.27;9.10;;;;;;;-1.62;74.85;102311.44;5035076;28;20025;-62
2024/01/21 00:48:03;;;;;;;17.37;9.13;;;;;;;-1.63;74.88;102309.75;5045349;28;20027;-62
2024/01/21 00:50:28;;;;;;;15.80;9.60;;;;;;;-1.63;74.94;102306.28;5044743;28;20094;-62
2024/01/21 00:52:54;;;;;;;14.83;9.20;;;;;;;-1.62;75.09;102308.84;5035695;28;20036;-62
2024/01/21 00:55:19;;;;;;;14.07;9.13;;;;;;;-1.63;75.10;102290.66;5038182;28;20033;-61
2024/01/21 00:57:45;;;;;;;14.80;8.70;;;;;;;-1.67;74.91;102289.94;5036869;28;20105;-62
2024/01/21 01:00:11;;;;;;;16.50;9.00;;;;;;;-1.69;75.04;102286.53;5042567;28;20167;-61
2024/01/21 01:02:36;;;;;;;15.03;9.17;;;;;;;-1.70;74.94;102287.44;5036102;28;20596;-62
2024/01/21 01:05:02;;;;;;;15.27;8.93;;;;;;;-1.72;74.98;102278.84;5040607;28;20021;-61
2024/01/21 01:07:27;;;;;;;14.87;8.70;;;;;;;-1.70;74.95;102273.56;5036375;28;20466;-62
2024/01/21 01:09:52;;;;;;;13.07;8.30;;;;;;;-1.75;74.76;102270.25;5041074;28;20826;-61
2024/01/21 01:12:18;;;;;;;13.27;8.40;;;;;;;-1.77;74.58;102274.69;5042626;28;20033;-62
2024/01/21 01:14:43;;;;;;;13.83;8.23;;;;;;;-1.79;74.51;102253.91;5041835;28;20024;-62
2024/01/21 01:17:08;;;;;;;14.60;7.93;;;;;;;-1.81;74.56;102245.31;5052211;28;20020;-61
2024/01/21 01:19:34;;;;;;;13.27;8.10;;;;;;;-1.85;74.31;102238.53;5048225;28;20672;-62
2024/01/21 01:22:00;;;;;;;13.27;8.00;;;;;;;-1.84;74.34;102234.16;5051003;28;20107;-61
2024/01/21 01:24:25;;;;;;;15.00;8.23;;;;;;;-1.91;73.92;102221.38;5041113;28;20390;-62
2024/01/21 01:26:50;;;;;;;15.33;7.87;;;;;;;-1.89;73.60;102216.13;5048556;28;20637;-61
2024/01/21 01:29:16;;;;;;;13.90;8.27;;;;;;;-1.94;73.88;102208.47;5052402;28;20033;-61
2024/01/21 01:31:42;;;;;;;15.17;7.93;;;;;;;-1.94;73.75;102202.44;5054551;28;20025;-62
2024/01/21 01:34:07;;;;;;;13.07;7.17;;;;;;;-1.95;73.38;102196.38;5047701;28;20064;-62
2024/01/21 01:36:33;;;;;;;10.33;7.13;;;;;;;-1.93;73.13;102194.56;5051691;28;20052;-61
2024/01/21 01:38:58;;;;;;;10.23;7.00;;;;;;;-1.95;72.99;102187.72;5047310;28;20061;-61
2024/01/21 01:41:24;;;;;;;12.97;7.63;;;;;;;-1.99;73.00;102179.19;5045194;28;20035;-61
2024/01/21 01:43:49;;;;;;;13.20;7.03;;;;;;;-2.04;72.68;102178.47;5042752;28;20032;-61
2024/01/21 01:46:15;;;;;;;12.97;7.53;;;;;;;-2.02;72.53;102168.03;5045740;28;20074;-62
2024/01/21 01:48:41;;;;;;;12.03;7.17;;;;;;;-2.04;72.62;102173.25;5048547;28;20024;-61
2024/01/21 01:51:07;;;;;;;12.43;6.73;;;;;;;-2.07;72.03;102164.72;5044397;28;20112;-61
2024/01/21 01:53:35;;;;;;;11.17;6.80;;;;;;;-2.08;72.01;102165.63;5045951;28;20439;-61
2024/01/21 01:56:02;;;;;;;11.57;7.33;;;;;;;-2.08;72.02;102150.03;5039300;28;20035;-61
2024/01/21 01:58:28;;;;;;;12.47;6.87;;;;;;;-2.08;71.75;102157.81;5038980;28;20033;-61
2024/01/21 02:00:53;;;;;;;12.17;7.10;;;;;;;-2.08;71.88;102153.47;5040556;28;20036;-61
2024/01/21 02:03:18;;;;;;;12.07;6.73;;;;;;;-2.07;71.53;102151.72;5039227;28;20033;-61
2024/01/21 02:05:44;;;;;;;13.37;7.23;;;;;;;-2.05;71.56;102149.91;5037765;28;20032;-61
2024/01/21 02:08:10;;;;;;;11.47;6.70;;;;;;;-2.06;71.41;102143.84;5040364;28;20028;-61
2024/01/21 02:10:35;;;;;;;13.13;7.00;;;;;;;-1.98;71.75;102133.16;5044916;28;20032;-61
2024/01/21 02:13:00;;;;;;;11.20;6.73;;;;;;;-1.98;71.04;102143.59;5049193;28;20136;-62
2024/01/21 02:15:25;;;;;;;10.90;6.37;;;;;;;-1.96;70.76;102127.00;5042814;28;20029;-61
2024/01/21 02:17:51;;;;;;;10.17;6.17;;;;;;;-1.93;70.93;102126.03;5037311;28;20020;-61
2024/01/21 02:20:16;;;;;;;10.77;6.30;;;;;;;-1.94;70.63;102129.53;5055691;28;20627;-61
2024/01/21 02:22:42;;;;;;;10.87;6.60;;;;;;;-1.86;70.53;102122.28;5037289;28;20025;-61
2024/01/21 02:25:08;;;;;;;11.77;6.33;;;;;;;-1.87;69.89;102121.44;5038909;28;20052;-61
2024/01/21 02:27:34;;;;;;;13.03;6.13;;;;;;;-1.82;69.81;102112.59;5037048;28;20025;-61
2024/01/21 02:30:00;;;;;;;11.87;6.57;;;;;;;-1.83;69.98;102096.13;5045525;28;20025;-61
2024/01/21 02:32:26;;;;;;;12.53;6.20;;;;;;;-1.79;69.81;102104.66;5045532;28;20441;-61
2024/01/21 02:34:52;;;;;;;8.17;5.67;;;;;;;-1.78;69.79;102096.78;5046808;28;20035;-61
2024/01/21 02:37:17;;;;;;;8.17;5.90;;;;;;;-1.74;69.36;102094.91;5043832;28;20025;-61
2024/01/21 02:39:43;;;;;;;11.10;6.13;;;;;;;-1.69;69.42;102096.44;5033394;28;20528;-61
2024/01/21 02:42:08;;;;;;;9.10;6.00;;;;;;;-1.68;69.45;102089.47;5042622;28;20025;-61
2024/01/21 02:44:34;;;;;;;10.43;5.50;;;;;;;-1.65;69.19;102087.59;5039921;28;20119;-61
2024/01/21 02:46:59;;;;;;;11.23;5.93;;;;;;;-1.61;68.99;102088.31;5040083;28;20033;-61
2024/01/21 02:49:28;;;;;;;9.83;5.80;;;;;;;-1.60;68.35;102088.25;5040429;28;20418;-61
2024/01/21 02:51:54;;;;;;;11.13;6.00;;;;;;;-1.56;68.49;102079.41;5042715;28;20028;-61
2024/01/21 02:54:19;;;;;;;10.53;5.33;;;;;;;-1.53;68.37;102075.81;5038407;28;20040;-62
2024/01/21 02:56:44;;;;;;;8.03;5.30;;;;;;;-1.49;68.17;102076.53;5035603;28;20021;-61
2024/01/21 02:59:10;;;;;;;10.17;6.00;;;;;;;-1.46;68.10;102079.00;5041834;28;20025;-61
2024/01/21 03:01:35;;;;;;;10.10;5.80;;;;;;;-1.43;68.21;102078.91;5036367;28;20497;-62
2024/01/21 03:04:01;;;;;;;10.77;5.63;;;;;;;-1.43;67.99;102068.50;5050288;28;20064;-61
2024/01/21 03:06:26;;;;;;;9.70;5.80;;;;;;;-1.42;68.03;102071.03;5036609;28;20098;-61
2024/01/21 03:08:51;;;;;;;11.77;5.90;;;;;;;-1.42;68.13;102052.78;5042693;28;20036;-61
2024/01/21 03:11:16;;;;;;;11.97;6.07;;;;;;;-1.42;68.07;102058.00;5035124;28;20041;-61
2024/01/21 03:13:42;;;;;;;9.83;5.40;;;;;;;-1.42;68.01;102046.72;5042118;28;20106;-61
2024/01/21 03:16:07;;;;;;;9.93;5.33;;;;;;;-1.43;67.98;102045.88;5039206;28;20021;-61
2024/01/21 03:18:32;;;;;;;8.67;5.60;;;;;;;-1.44;67.94;102033.78;5039563;28;20029;-61
2024/01/21 03:20:58;;;;;;;9.13;5.60;;;;;;;-1.45;67.66;102029.44;5041650;28;20053;-61
2024/01/21 03:23:23;;;;;;;11.20;5.63;;;;;;;-1.44;67.44;102030.31;5036287;28;20048;-61
2024/01/21 03:25:48;;;;;;;9.90;5.73;;;;;;;-1.45;68.01;102033.81;5040312;28;20036;-61
2024/01/21 03:28:14;;;;;;;7.73;5.27;;;;;;;-1.46;68.26;102029.50;5043465;28;20029;-61
2024/01/21 03:30:39;;;;;;;8.53;5.57;;;;;;;-1.49;67.98;102034.84;5039176;28;20032;-61
2024/01/21 03:33:04;;;;;;;10.57;5.60;;;;;;;-1.50;67.95;102030.56;5045850;28;20093;-61
2024/01/21 03:35:30;;;;;;;9.93;5.60;;;;;;;-1.51;68.33;102023.66;5043088;28;20025;-61
2024/01/21 03:37:55;;;;;;;9.10;5.97;;;;;;;-1.52;68.29;102012.38;5046428;28;20028;-61
2024/01/21 03:40:20;;;;;;;11.77;5.93;;;;;;;-1.52;68.50;102014.16;5039877;28;20032;-61
2024/01/21 03:42:47;;;;;;;11.03;5.87;;;;;;;-1.51;68.56;102013.22;5047567;28;20040;-61
2024/01/21 03:45:13;;;;;;;9.50;5.30;;;;;;;-1.50;68.84;102009.72;5035497;28;20029;-61
2024/01/21 03:47:38;;;;;;;8.37;5.50;;;;;;;-1.48;69.21;102013.09;5035250;28;20040;-61
2024/01/21 03:50:05;;;;;;;10.20;5.40;;;;;;;-1.44;69.07;102012.09;5035699;28;20569;-62
2024/01/21 03:52:30;;;;;;;8.33;5.53;;;;;;;-1.40;69.03;102016.25;5037458;28;20103;-61
2024/01/21 03:54:55;;;;;;;8.33;5.30;;;;;;;-1.34;69.11;102023.81;5038501;28;20036;-61
2024/01/21 03:57:21;;;;;;;9.27;5.20;;;;;;;-1.30;68.91;102015.78;5038298;28;20025;-61
2024/01/21 03:59:47;;;;;;;9.27;5.50;;;;;;;-1.25;68.66;102021.63;5040729;28;20035;-62
2024/01/21 04:02:12;;;;;;;8.33;5.40;;;;;;;-1.20;68.63;102003.19;5048971;28;20036;-61
2024/01/21 04:04:37;;;;;;;8.67;5.20;;;;;;;-1.18;68.74;101985.72;5041065;28;20104;-61
2024/01/21 04:07:03;;;;;;;7.63;4.90;;;;;;;-1.18;68.99;101979.66;5041635;28;20864;-61
2024/01/21 04:09:28;;;;;;;7.83;4.50;;;;;;;-1.18;68.83;101980.50;5039718;28;20039;-62
2024/01/21 04:11:53;;;;;;;8.37;4.90;;;;;;;-1.16;68.99;101973.47;5041404;28;20033;-61
2024/01/21 04:14:19;;;;;;;7.70;4.60;;;;;;;-1.13;68.74;101975.97;5036945;28;20140;-61
2024/01/21 04:16:44;;;;;;;7.53;4.70;;;;;;;-1.09;68.86;101972.31;5041649;28;20090;-61
2024/01/21 04:19:10;;;;;;;8.03;4.50;;;;;;;-1.06;68.65;101971.31;5049308;28;20025;-62
2024/01/21 04:21:38;;;;;;;7.70;4.67;;;;;;;-1.05;68.62;101975.63;5034361;28;20038;-61
2024/01/21 04:24:04;;;;;;;7.77;4.47;;;;;;;-0.98;68.81;101971.81;5037209;28;20037;-61
2024/01/21 04:26:32;;;;;;;8.00;4.30;;;;;;;-0.93;68.38;101968.09;5040369;28;20029;-61
2024/01/21 04:28:58;;;;;;;7.47;4.67;;;;;;;-0.86;68.25;101966.06;5031046;28;20025;-61
2024/01/21 04:31:23;;;;;;;7.07;4.57;;;;;;;-0.81;68.38;101963.25;5036410;28;20950;-61
2024/01/21 04:33:48;;;;;;;7.43;4.73;;;;;;;-0.79;68.38;101951.84;5026820;28;20478;-61
2024/01/21 04:36:18;;;;;;;7.40;4.70;;;;;;;-0.74;68.22;101938.56;5039522;28;20032;-61
2024/01/21 04:38:44;;;;;;;10.57;4.80;;;;;;;-0.72;68.19;101934.97;5036736;28;20067;-61
2024/01/21 04:41:09;;;;;;;8.87;5.13;;;;;;;-0.70;68.09;101914.03;5033565;28;20033;-61
2024/01/21 04:43:35;;;;;;;8.93;5.07;;;;;;;-0.69;68.23;101902.69;5037561;28;20086;-61
2024/01/21 04:46:00;;;;;;;7.37;4.90;;;;;;;-0.68;68.43;101886.13;5032718;28;20123;-61
2024/01/21 04:48:25;;;;;;;8.60;4.90;;;;;;;-0.65;68.41;101878.16;5041068;28;20103;-62
2024/01/21 04:50:51;;;;;;;7.17;4.97;;;;;;;-0.60;68.61;101883.13;5035171;28;20029;-62
2024/01/21 04:53:16;;;;;;;7.67;4.40;;;;;;;-0.58;68.58;101876.09;5035783;28;20123;-61
2024/01/21 04:55:41;;;;;;;8.67;5.30;;;;;;;-0.54;68.50;101877.66;5043422;28;20029;-61
2024/01/21 04:58:07;;;;;;;10.47;5.40;;;;;;;-0.48;68.46;101865.16;5043140;28;20036;-62
2024/01/21 05:00:32;;;;;;;9.77;5.63;;;;;;;-0.42;68.24;101880.50;5043245;28;20457;-61
2024/01/21 05:02:57;;;;;;;8.23;5.30;;;;;;;-0.37;68.16;101880.28;5041380;28;20446;-61
2024/01/21 05:05:23;;;;;;;8.43;5.33;;;;;;;-0.25;68.22;101881.47;5049645;28;20104;-61
2024/01/21 05:07:48;;;;;;;9.53;5.23;;;;;;;-0.19;67.97;101866.31;5032501;28;20055;-61
2024/01/21 05:10:13;;;;;;;8.40;5.37;;;;;;;-0.16;68.12;101873.16;5044988;28;20035;-62
2024/01/21 05:12:38;;;;;;;10.07;5.60;;;;;;;-0.12;67.91;101853.81;5044898;28;20031;-61
2024/01/21 05:15:04;;;;;;;9.67;5.50;;;;;;;-0.03;67.88;101877.69;5043731;28;20212;-62
2024/01/21 05:17:30;;;;;;;9.27;5.63;;;;;;;0.12;67.62;101877.84;5041711;28;20082;-61
2024/01/21 05:19:55;;;;;;;11.40;5.87;;;;;;;0.23;67.10;101878.97;5037402;28;20116;-61
2024/01/21 05:22:20;;;;;;;10.80;6.37;;;;;;;0.30;67.07;101882.97;5041799;28;20025;-62
2024/01/21 05:24:46;;;;;;;10.17;6.47;;;;;;;0.37;67.02;101887.88;5045316;28;20144;-61
2024/01/21 05:27:11;;;;;;;10.83;6.30;;;;;;;0.40;66.97;101874.66;5041471;28;20032;-62
2024/01/21 05:29:36;;;;;;;9.17;5.80;;;;;;;0.48;66.75;101873.31;5050471;28;20509;-61
2024/01/21 05:32:01;;;;;;;10.20;6.30;;;;;;;0.55;66.49;101868.63;5040133;28;20025;-62
2024/01/21 05:34:27;;;;;;;11.73;6.20;;;;;;;0.58;66.33;101850.19;5042539;28;20041;-62
2024/01/21 05:36:52;;;;;;;9.17;5.37;;;;;;;0.58;65.99;101860.63;5045056;28;20020;-62
2024/01/21 05:39:17;;;;;;;10.37;6.50;;;;;;;0.66;65.94;101862.84;5041357;28;20136;-61
2024/01/21 05:41:43;;;;;;;9.33;6.07;;;;;;;0.66;65.71;101870.69;5046051;28;20514;-61
2024/01/21 05:44:08;;;;;;;9.53;6.23;;;;;;;0.71;65.55;101866.88;5045293;28;20035;-61
2024/01/21 05:46:34;;;;;;;10.43;6.30;;;;;;;0.72;65.43;101841.59;5047590;28;20028;-62
2024/01/21 05:48:59;;;;;;;10.03;6.23;;;;;;;0.80;65.07;101850.69;5047207;28;20093;-62
2024/01/21 05:51:24;;;;;;;11.37;6.37;;;;;;;0.78;65.15;101844.72;5038496;28;20033;-62
2024/01/21 05:53:50;;;;;;;10.73;6.33;;;;;;;0.81;65.07;101841.94;5040370;28;20039;-62
2024/01/21 05:56:18;;;;;;;11.30;6.20;;;;;;;0.78;65.15;101836.88;5038379;28;20474;-62
2024/01/21 05:58:44;;;;;;;8.37;6.00;;;;;;;0.75;65.40;101833.56;5037097;28;20494;-62
2024/01/21 06:01:09;;;;;;;10.70;6.53;;;;;;;0.81;65.44;101847.16;5039952;28;20043;-62
2024/01/21 06:03:34;;;;;;;12.10;7.33;;;;;;;0.87;65.09;101836.38;5046082;28;20039;-62
2024/01/21 06:05:59;;;;;;;11.10;7.20;;;;;;;0.88;65.08;101826.78;5045296;28;20035;-62
2024/01/21 06:08:27;;;;;;;10.37;6.43;;;;;;;0.87;64.98;101823.31;5043510;28;20094;-62
2024/01/21 06:10:53;;;;;;;10.10;6.10;;;;;;;0.92;64.47;101838.75;5038114;28;20094;-62
2024/01/21 06:13:18;;;;;;;10.67;6.13;;;;;;;0.93;64.55;101846.50;5041768;28;20502;-62
2024/01/21 06:15:43;;;;;;;12.63;6.83;;;;;;;0.91;64.56;101827.44;5035884;28;21228;-62
2024/01/21 06:18:08;;;;;;;9.83;6.37;;;;;;;1.00;64.53;101836.53;5041300;28;20028;-62
2024/01/21 06:20:34;;;;;;;10.53;6.67;;;;;;;1.01;64.21;101840.00;5040612;28;20021;-62
2024/01/21 06:22:59;;;;;;;11.40;7.07;;;;;;;0.95;64.53;101861.28;5046680;28;20028;-62
2024/01/21 06:25:24;;;;;;;10.17;6.47;;;;;;;1.00;64.27;101857.47;5037910;28;20075;-61
2024/01/21 06:27:50;;;;;;;11.53;6.33;;;;;;;1.04;63.79;101865.97;5037353;28;20120;-62
2024/01/21 06:30:17;;;;;;;11.73;6.73;;;;;;;1.06;63.72;101841.44;5037872;28;20565;-62
2024/01/21 06:32:42;;;;;;;10.87;6.87;;;;;;;1.04;63.83;101855.53;5039316;28;20028;-62
2024/01/21 06:35:08;;;;;;;11.13;6.80;;;;;;;1.10;63.43;101857.78;5038312;28;20029;-61
2024/01/21 06:37:33;;;;;;;11.47;6.97;;;;;;;1.11;63.50;101846.41;5038537;28;20029;-62
2024/01/21 06:39:59;;;;;;;10.23;6.03;;;;;;;1.13;63.20;101868.94;5035915;28;20542;-62
2024/01/21 06:42:24;;;;;;;10.67;6.20;;;;;;;1.12;63.31;101867.25;5040960;28;20465;-62
2024/01/21 06:44:50;;;;;;;10.40;6.97;;;;;;;1.11;63.27;101869.94;5034631;28;20029;-62
2024/01/21 06:47:15;;;;;;;10.00;6.13;;;;;;;1.13;62.78;101862.84;5044839;28;20029;-62
2024/01/21 06:49:40;;;;;;;10.40;6.60;;;;;;;1.15;62.94;101876.69;5039787;28;20116;-62
2024/01/21 06:52:08;;;;;;;12.70;6.63;;;;;;;1.21;62.90;101874.59;5042011;28;20017;-64
2024/01/21 06:54:36;;;;;;;10.43;6.57;;;;;;;1.19;62.81;101873.84;5048471;28;20055;-62
2024/01/21 06:57:02;;;;;;;11.60;6.93;;;;;;;1.24;62.31;101866.59;5051626;28;20025;-62
2024/01/21 06:59:27;;;;;;;10.33;6.13;;;;;;;1.28;62.44;101858.56;5044486;28;20110;-62
2024/01/21 07:01:52;;;;;;;10.17;6.57;;;;;;;1.24;62.75;101845.66;5039644;28;20025;-62
2024/01/21 07:04:20;;;;;;;10.57;6.07;;;;;;;1.22;62.34;101828.34;5044909;28;20024;-62
2024/01/21 07:06:46;;;;;;;10.30;6.73;;;;;;;1.24;62.21;101824.72;5041038;28;20033;-61
2024/01/21 07:09:12;;;;;;;9.33;6.43;;;;;;;1.25;62.09;101815.09;5036459;28;20090;-62
2024/01/21 07:11:41;;;;;;;10.37;6.30;;;;;;;1.26;61.64;101808.09;5037852;28;20486;-62
2024/01/21 07:14:07;;;;;;;8.88;6.47;;;;;;;1.26;61.81;101806.31;5039267;28;20063;-62
2024/01/21 07:16:32;;;;;;;9.47;6.47;;;;;;;1.31;61.53;101793.81;5046558;28;20120;-62
2024/01/21 07:18:57;;;;;;;9.47;5.90;;;;;;;1.33;61.47;101801.56;5042098;28;20052;-62
2024/01/21 07:21:23;;;;;;;9.27;6.17;;;;;;;1.36;61.12;101804.84;5041921;28;20378;-61
2024/01/21 07:23:48;;;;;;;9.80;6.10;;;;;;;1.38;61.24;101802.16;5035163;28;20125;-62
2024/01/21 07:26:13;;;;;;;10.23;6.07;;;;;;;1.35;61.19;101825.88;5039575;28;20542;-62
2024/01/21 07:28:38;;;;;;;8.13;5.77;;;;;;;1.37;60.92;101808.31;5047584;28;20032;-62
2024/01/21 07:31:04;;;;;;;11.17;6.40;;;;;;;1.36;60.59;101824.94;5035969;28;20037;-62
2024/01/21 07:33:29;;;;;;;10.10;6.10;;;;;;;1.33;60.76;101823.34;5038715;28;21887;-61
2024/01/21 07:35:55;;;;;;;9.93;6.07;;;;;;;1.36;60.33;101827.56;5038443;28;20032;-61
2024/01/21 07:38:21;;;;;;;11.83;6.83;;;;;;;1.33;60.70;101809.44;5043610;28;20032;-62
2024/01/21 07:40:47;;;;;;;11.93;6.20;;;;;;;1.33;60.42;101823.34;5038714;28;20743;-62
2024/01/21 07:43:13;;;;;;;9.33;6.00;;;;;;;1.33;60.56;101817.28;5045986;28;20044;-61
2024/01/21 07:45:39;;;;;;;12.73;6.63;;;;;;;1.32;60.52;101831.28;5039970;28;20067;-62
2024/01/21 07:48:05;;;;;;;11.00;6.53;;;;;;;1.28;60.56;101850.72;5041104;28;20059;-62
2024/01/21 07:50:30;;;;;;;11.50;6.17;;;;;;;1.33;60.31;101853.91;5049284;28;20120;-61
2024/01/21 07:52:56;;;;;;;11.57;6.03;;;;;;;1.33;60.36;101859.13;5046437;28;20040;-62
2024/01/21 07:55:21;;;;;;;9.03;5.87;;;;;;;1.32;60.48;101862.69;5040200;28;20029;-61
2024/01/21 07:57:47;;;;;;;10.47;5.90;;;;;;;1.34;60.04;101869.53;5035487;28;20527;-62
2024/01/21 08:00:13;;;;;;;9.47;6.13;;;;;;;1.36;59.79;101869.44;5038822;28;20035;-62
2024/01/21 08:02:39;;;;;;;9.30;5.93;;;;;;;1.37;60.14;101892.91;5039424;28;20025;-62
2024/01/21 08:05:05;;;;;;;9.40;6.10;;;;;;;1.35;60.06;101905.22;5036172;28;20037;-62
2024/01/21 08:07:30;;;;;;;10.27;6.17;;;;;;;1.35;60.07;101912.22;5038630;28;20090;-62
2024/01/21 08:09:56;;;;;;;10.77;6.30;;;;;;;1.36;60.36;101916.53;5032011;28;20033;-62
2024/01/21 08:12:21;;;;;;;8.90;5.80;;;;;;;1.37;60.11;101920.84;5038835;28;20025;-62
2024/01/21 08:14:47;;;;;;;10.63;6.30;;;;;;;1.37;60.19;101919.06;5039769;28;20037;-62
2024/01/21 08:17:13;;;;;;;9.50;6.00;;;;;;;1.40;60.49;101913.66;5039647;28;20044;-62
2024/01/21 08:19:39;;;;;;;9.53;5.93;;;;;;;1.43;60.15;101903.00;5029445;28;20138;-62
2024/01/21 08:22:04;;;;;;;9.00;5.80;;;;;;;1.45;60.60;101898.56;5037483;28;20124;-62
2024/01/21 08:24:30;;;;;;;11.23;5.90;;;;;;;1.50;60.45;101890.47;5037249;28;20549;-62
2024/01/21 08:26:57;;;;;;;10.03;5.73;;;;;;;1.55;60.38;101907.59;5044480;28;20036;-62
2024/01/21 08:29:22;;;;;;;9.43;6.17;;;;;;;1.57;60.57;101904.03;5043274;28;20063;-62
2024/01/21 08:31:48;;;;;;;10.17;5.43;;;;;;;1.60;60.51;101888.16;5037988;28;20068;-62
2024/01/21 08:34:13;;;;;;;10.80;6.10;;;;;;;1.61;60.44;101895.91;5039498;28;20036;-62
2024/01/21 08:36:38;;;;;;;8.07;5.37;;;;;;;1.60;60.88;101883.75;5034780;28;20035;-62
2024/01/21 08:39:05;;;;;;;8.17;5.50;;;;;;;1.62;60.75;101897.59;5049965;28;20402;-62
2024/01/21 08:41:33;;;;;;;9.27;5.90;;;;;;;1.66;61.25;101896.50;5040229;28;20111;-62
2024/01/21 08:43:58;;;;;;;9.43;5.83;;;;;;;1.67;61.64;101900.78;5044871;28;20044;-62
2024/01/21 08:46:23;;;;;;;10.10;5.57;;;;;;;1.70;61.61;101899.78;5048027;28;20029;-62
2024/01/21 08:48:49;;;;;;;7.50;5.17;;;;;;;1.69;62.15;101892.84;5040321;28;20052;-62
2024/01/21 08:51:14;;;;;;;9.20;5.70;;;;;;;1.74;62.16;101888.22;5042919;28;20033;-62
2024/01/21 08:53:39;;;;;;;8.40;5.97;;;;;;;1.74;62.47;101896.91;5041102;28;20037;-62
2024/01/21 08:56:05;;;;;;;8.63;5.40;;;;;;;1.79;62.62;101900.13;5040461;28;20056;-62
2024/01/21 08:58:30;;;;;;;8.57;5.50;;;;;;;1.84;62.85;101886.75;5039757;28;20044;-62
2024/01/21 09:00:55;;;;;;;8.47;6.00;;;;;;;1.82;63.26;101897.31;5040483;28;20063;-62
2024/01/21 09:03:21;;;;;;;10.00;6.30;;;;;;;1.83;63.53;101900.78;5045641;28;20021;-62
2024/01/21 09:05:46;;;;;;;8.73;5.10;;;;;;;1.87;64.10;101902.28;5034631;28;20036;-62
2024/01/21 09:08:11;;;;;;;9.87;5.97;;;;;;;1.86;64.94;101909.31;5047097;28;20025;-63
2024/01/21 09:10:37;;;;;;;10.20;6.10;;;;;;;1.88;65.61;101924.09;5043007;28;20718;-62
2024/01/21 09:13:02;;;;;;;9.17;6.20;;;;;;;1.87;66.15;101923.25;5043663;28;20517;-62
2024/01/21 09:15:27;;;;;;;8.63;5.57;;;;;;;1.87;66.70;101938.94;5045424;28;20096;-62
2024/01/21 09:17:53;;;;;;;9.87;5.83;;;;;;;1.87;67.03;101936.34;5037918;28;20087;-62
2024/01/21 09:20:18;;;;;;;10.50;6.53;;;;;;;1.83;67.72;101938.28;5047422;28;20114;-62
2024/01/21 09:22:44;;;;;;;9.90;6.50;;;;;;;1.84;68.40;101933.88;5043919;28;20565;-62
2024/01/21 09:25:09;;;;;;;11.00;6.57;;;;;;;1.82;68.97;101936.59;5057106;28;20082;-62
2024/01/21 09:27:34;;;;;;;9.80;6.40;;;;;;;1.87;69.12;101928.47;5044197;28;20046;-62
2024/01/21 09:29:59;;;;;;;11.63;6.43;;;;;;;1.87;69.84;101928.47;5039935;28;20568;-62
2024/01/21 09:32:26;;;;;;;11.53;6.50;;;;;;;1.89;70.17;101947.56;5043352;28;20099;-62
2024/01/21 09:34:51;;;;;;;8.67;6.13;;;;;;;1.89;70.71;101950.19;5043264;28;20033;-62
2024/01/21 09:37:16;;;;;;;11.80;6.60;;;;;;;1.89;71.44;101952.81;5043275;28;20085;-62
2024/01/21 09:39:42;;;;;;;10.63;6.63;;;;;;;1.87;71.70;101946.81;5044624;28;20033;-62
2024/01/21 09:42:10;;;;;;;9.60;6.30;;;;;;;1.86;71.92;101947.75;5039645;28;20038;-62
2024/01/21 09:44:35;;;;;;;10.17;6.73;;;;;;;1.89;72.26;101950.19;5053471;28;20119;-62
2024/01/21 09:47:02;;;;;;;9.37;6.43;;;;;;;1.85;72.83;101951.28;5036892;28;20729;-62
2024/01/21 09:49:28;;;;;;;8.57;6.13;;;;;;;1.88;73.29;101951.13;5038245;28;20452;-62
2024/01/21 09:51:54;;;;;;;11.13;6.30;;;;;;;1.90;74.08;101943.16;5038161;28;20030;-62
2024/01/21 09:54:21;;;;;;;12.13;7.13;;;;;;;1.89;74.67;101952.81;5056358;28;20032;-62
2024/01/21 09:56:47;;;;;;;9.33;7.00;;;;;;;1.92;74.91;101959.63;5046605;28;20124;-62
2024/01/21 09:59:13;;;;;;;9.87;6.50;;;;;;;1.95;75.54;101957.69;5041148;28;20282;-62
2024/01/21 10:01:40;;;;;;;10.50;6.50;;;;;;;1.98;76.24;101951.44;5043366;28;20043;-62
2024/01/21 10:04:09;;;;;;;11.73;6.80;;;;;;;1.99;77.05;101938.25;5038335;28;20048;-62
2024/01/21 10:06:35;;;;;;;10.05;6.40;;;;;;;1.97;77.82;101934.88;5051995;28;20147;-62
2024/01/21 10:09:14;;;;;;;11.27;6.83;;;;;;;1.99;78.55;101938.25;5038977;28;21048;-62
2024/01/21 10:11:40;;;;;;;10.00;6.57;;;;;;;2.01;78.95;101943.38;5049105;28;20024;-62
2024/01/21 10:14:05;;;;;;;10.60;7.00;;;;;;;2.04;79.61;101927.53;5037847;28;20059;-62
2024/01/21 10:16:31;;;;;;;11.93;6.87;;;;;;;2.09;80.48;101928.09;5045196;28;20468;-62
2024/01/21 10:18:56;;;;;;;12.67;7.50;;;;;;;2.10;80.84;101925.38;5037155;28;20032;-64
2024/01/21 10:21:22;;;;;;;10.80;7.03;;;;;;;2.09;81.10;101912.38;5041622;28;20080;-62
2024/01/21 10:23:47;;;;;;;11.33;6.50;;;;;;;2.12;82.16;101912.19;5035011;28;20044;-62
2024/01/21 10:26:13;;;;;;;12.13;7.20;;;;;;;2.16;82.50;101906.66;5039611;28;20039;-62
2024/01/21 10:28:41;;;;;;;9.77;6.67;;;;;;;2.25;83.12;101907.91;5040931;28;20139;-62
2024/01/21 10:31:07;;;;;;;12.33;7.00;;;;;;;2.25;83.72;101904.44;5037856;28;20094;-62
2024/01/21 10:33:32;;;;;;;10.33;7.33;;;;;;;2.29;84.20;101913.81;5036918;28;20045;-62
2024/01/21 10:36:00;;;;;;;9.40;6.33;;;;;;;2.34;84.54;101896.06;5035308;28;20037;-63
2024/01/21 10:38:34;;;;;;;12.27;7.17;;;;;;;2.38;85.27;101889.69;5037702;28;20048;-62
2024/01/21 10:41:00;;;;;;;11.20;7.10;;;;;;;2.45;85.26;101901.47;5055241;28;20039;-62
2024/01/21 10:43:27;;;;;;;12.77;7.13;;;;;;;2.46;85.71;101900.53;5042056;28;20037;-62
2024/01/21 10:45:52;;;;;;;13.43;6.73;;;;;;;2.48;86.01;101898.66;5045503;28;20089;-62
2024/01/21 10:48:20;;;;;;;9.87;6.67;;;;;;;2.54;86.15;101903.53;5033125;28;20565;-62
2024/01/21 10:50:46;;;;;;;11.00;6.87;;;;;;;2.58;86.27;101875.34;5038364;28;20032;-62
2024/01/21 10:53:12;;;;;;;11.33;6.73;;;;;;;2.63;86.17;101870.69;5030197;28;20040;-62
2024/01/21 10:55:41;;;;;;;9.27;6.80;;;;;;;2.65;86.35;101864.41;5034285;28;20028;-62
2024/01/21 10:58:10;;;;;;;9.35;6.63;;;;;;;2.68;86.51;101869.47;5034698;28;20033;-62
2024/01/21 11:00:37;;;;;;;11.65;6.70;;;;;;;2.72;86.16;101863.09;5035720;28;20028;-62
2024/01/21 11:03:23;;;;;;;11.33;7.00;;;;;;;2.75;86.37;101862.06;5035463;28;20033;-62
2024/01/21 11:05:52;;;;;;;11.50;6.63;;;;;;;2.73;86.64;101870.03;5032725;28;20757;-62
2024/01/21 11:08:21;;;;;;;10.27;7.28;;;;;;;2.74;86.44;101887.44;5041016;28;20028;-62
2024/01/21 11:10:46;;;;;;;9.90;7.43;;;;;;;2.77;86.47;101873.28;5038200;28;20081;-62
2024/01/21 11:13:58;;;;;;;11.90;7.00;;;;;;;2.83;86.45;101887.81;5038176;28;20312;-63
2024/01/21 11:16:26;;;;;;;9.77;6.60;;;;;;;2.89;86.13;101887.41;5037111;28;20044;-62
2024/01/21 11:18:52;;;;;;;12.23;7.00;;;;;;;2.88;85.71;101886.56;5041453;28;20504;-62